sensor_id;sensor_type;location;lat;lon;timestamp;temperature;humidity
54485;DHT22;45006;56.958;24.166;2023-04-03T00:00:41;23.10;70.40
54485;DHT22;45006;56.958;24.166;2023-04-03T00:03:08;23.10;70.30
54485;DHT22;45006;56.958;24.166;2023-04-03T00:05:35;23.10;70.50
54485;DHT22;45006;56.958;24.166;2023-04-03T00:08:03;23.10;70.60
54485;DHT22;45006;56.958;24.166;2023-04-03T00:10:31;23.10;70.50
54485;DHT22;45006;56.958;24.166;2023-04-03T00:12:58;23.10;70.80
54485;DHT22;45006;56.958;24.166;2023-04-03T00:15:25;23.10;70.50
54485;DHT22;45006;56.958;24.166;2023-04-03T00:17:51;23.10;70.90
54485;DHT22;45006;56.958;24.166;2023-04-03T00:20:18;23.10;70.90
54485;DHT22;45006;56.958;24.166;2023-04-03T00:22:46;23.10;71.10
54485;DHT22;45006;56.958;24.166;2023-04-03T00:25:13;23.10;70.70
54485;DHT22;45006;56.958;24.166;2023-04-03T00:27:40;23.10;70.70
54485;DHT22;45006;56.958;24.166;2023-04-03T00:30:11;23.10;70.80
54485;DHT22;45006;56.958;24.166;2023-04-03T00:32:39;23.10;70.90
54485;DHT22;45006;56.958;24.166;2023-04-03T00:35:07;23.10;71.40
54485;DHT22;45006;56.958;24.166;2023-04-03T00:37:36;23.10;71.80
54485;DHT22;45006;56.958;24.166;2023-04-03T00:40:05;23.20;72.20
54485;DHT22;45006;56.958;24.166;2023-04-03T00:42:33;23.20;72.60
54485;DHT22;45006;56.958;24.166;2023-04-03T00:47:28;23.10;74.80
54485;DHT22;45006;56.958;24.166;2023-04-03T00:49:57;23.20;76.40
54485;DHT22;45006;56.958;24.166;2023-04-03T00:52:28;23.10;69.80
54485;DHT22;45006;56.958;24.166;2023-04-03T00:55:00;23.10;70.30
54485;DHT22;45006;56.958;24.166;2023-04-03T00:57:30;23.10;70.50
54485;DHT22;45006;56.958;24.166;2023-04-03T01:00:03;23.10;70.50
54485;DHT22;45006;56.958;24.166;2023-04-03T01:02:31;23.10;70.50
54485;DHT22;45006;56.958;24.166;2023-04-03T01:04:58;23.10;70.50
54485;DHT22;45006;56.958;24.166;2023-04-03T01:07:30;23.10;70.40
54485;DHT22;45006;56.958;24.166;2023-04-03T01:10:00;23.10;70.60
54485;DHT22;45006;56.958;24.166;2023-04-03T01:12:35;23.10;70.50
54485;DHT22;45006;56.958;24.166;2023-04-03T01:15:14;23.10;70.50
54485;DHT22;45006;56.958;24.166;2023-04-03T01:17:56;23.10;70.50
54485;DHT22;45006;56.958;24.166;2023-04-03T01:28:06;23.10;70.30
54485;DHT22;45006;56.958;24.166;2023-04-03T01:30:48;23.10;70.30
54485;DHT22;45006;56.958;24.166;2023-04-03T01:33:17;23.10;70.50
54485;DHT22;45006;56.958;24.166;2023-04-03T01:35:44;23.10;70.40
54485;DHT22;45006;56.958;24.166;2023-04-03T01:38:12;23.10;70.40
54485;DHT22;45006;56.958;24.166;2023-04-03T01:40:39;23.10;70.40
54485;DHT22;45006;56.958;24.166;2023-04-03T01:43:05;23.10;70.40
54485;DHT22;45006;56.958;24.166;2023-04-03T01:45:32;23.10;70.40
54485;DHT22;45006;56.958;24.166;2023-04-03T01:47:59;23.10;70.30
54485;DHT22;45006;56.958;24.166;2023-04-03T01:50:26;23.10;70.30
54485;DHT22;45006;56.958;24.166;2023-04-03T01:52:53;23.10;70.30
54485;DHT22;45006;56.958;24.166;2023-04-03T01:55:20;23.10;70.30
54485;DHT22;45006;56.958;24.166;2023-04-03T01:57:47;23.10;70.30
54485;DHT22;45006;56.958;24.166;2023-04-03T02:00:14;23.10;70.30
54485;DHT22;45006;56.958;24.166;2023-04-03T02:02:42;23.10;70.20
54485;DHT22;45006;56.958;24.166;2023-04-03T02:05:09;23.10;70.10
54485;DHT22;45006;56.958;24.166;2023-04-03T02:07:36;23.10;70.20
54485;DHT22;45006;56.958;24.166;2023-04-03T02:10:03;23.10;70.20
54485;DHT22;45006;56.958;24.166;2023-04-03T02:12:30;23.10;70.00
54485;DHT22;45006;56.958;24.166;2023-04-03T02:14:57;23.10;69.80
54485;DHT22;45006;56.958;24.166;2023-04-03T02:17:24;23.10;69.60
54485;DHT22;45006;56.958;24.166;2023-04-03T02:19:51;23.10;69.80
54485;DHT22;45006;56.958;24.166;2023-04-03T02:22:18;23.10;69.70
54485;DHT22;45006;56.958;24.166;2023-04-03T02:24:45;23.10;69.80
54485;DHT22;45006;56.958;24.166;2023-04-03T02:27:12;23.10;69.80
54485;DHT22;45006;56.958;24.166;2023-04-03T02:29:39;23.10;69.80
54485;DHT22;45006;56.958;24.166;2023-04-03T02:32:06;23.10;69.70
54485;DHT22;45006;56.958;24.166;2023-04-03T02:34:33;23.10;69.80
54485;DHT22;45006;56.958;24.166;2023-04-03T02:37:00;23.10;69.80
54485;DHT22;45006;56.958;24.166;2023-04-03T02:39:27;23.10;69.80
54485;DHT22;45006;56.958;24.166;2023-04-03T02:41:56;23.10;69.80
54485;DHT22;45006;56.958;24.166;2023-04-03T02:44:23;23.10;69.90
54485;DHT22;45006;56.958;24.166;2023-04-03T02:46:53;23.10;69.80
54485;DHT22;45006;56.958;24.166;2023-04-03T02:49:20;23.10;69.60
54485;DHT22;45006;56.958;24.166;2023-04-03T02:51:47;23.10;69.50
54485;DHT22;45006;56.958;24.166;2023-04-03T02:54:14;23.10;69.70
54485;DHT22;45006;56.958;24.166;2023-04-03T02:56:41;23.10;69.70
54485;DHT22;45006;56.958;24.166;2023-04-03T02:59:08;23.10;69.70
54485;DHT22;45006;56.958;24.166;2023-04-03T03:01:35;23.10;69.60
54485;DHT22;45006;56.958;24.166;2023-04-03T03:04:02;23.10;69.60
54485;DHT22;45006;56.958;24.166;2023-04-03T03:06:29;23.10;69.60
54485;DHT22;45006;56.958;24.166;2023-04-03T03:08:56;23.10;69.60
54485;DHT22;45006;56.958;24.166;2023-04-03T03:11:23;23.10;69.80
54485;DHT22;45006;56.958;24.166;2023-04-03T03:13:50;23.10;69.70
54485;DHT22;45006;56.958;24.166;2023-04-03T03:16:17;23.10;69.70
54485;DHT22;45006;56.958;24.166;2023-04-03T03:18:44;23.10;69.60
54485;DHT22;45006;56.958;24.166;2023-04-03T03:21:11;23.10;69.50
54485;DHT22;45006;56.958;24.166;2023-04-03T03:23:38;23.10;69.50
54485;DHT22;45006;56.958;24.166;2023-04-03T03:26:07;23.10;69.60
54485;DHT22;45006;56.958;24.166;2023-04-03T03:28:35;23.10;69.60
54485;DHT22;45006;56.958;24.166;2023-04-03T03:31:03;23.10;69.60
54485;DHT22;45006;56.958;24.166;2023-04-03T03:33:30;23.10;69.30
54485;DHT22;45006;56.958;24.166;2023-04-03T03:35:57;23.10;69.50
54485;DHT22;45006;56.958;24.166;2023-04-03T03:38:24;23.10;69.40
54485;DHT22;45006;56.958;24.166;2023-04-03T03:40:51;23.10;69.60
54485;DHT22;45006;56.958;24.166;2023-04-03T03:43:19;23.10;69.60
54485;DHT22;45006;56.958;24.166;2023-04-03T03:45:53;23.10;69.60
54485;DHT22;45006;56.958;24.166;2023-04-03T03:48:20;23.10;69.70
54485;DHT22;45006;56.958;24.166;2023-04-03T03:50:48;23.10;69.50
54485;DHT22;45006;56.958;24.166;2023-04-03T03:53:16;23.10;69.60
54485;DHT22;45006;56.958;24.166;2023-04-03T03:55:43;23.10;69.60
54485;DHT22;45006;56.958;24.166;2023-04-03T03:58:11;23.10;69.60
54485;DHT22;45006;56.958;24.166;2023-04-03T04:00:38;23.10;69.40
54485;DHT22;45006;56.958;24.166;2023-04-03T04:03:06;23.10;69.50
54485;DHT22;45006;56.958;24.166;2023-04-03T04:05:33;23.10;69.50
54485;DHT22;45006;56.958;24.166;2023-04-03T04:08:00;23.10;69.40
54485;DHT22;45006;56.958;24.166;2023-04-03T04:10:27;23.10;69.50
54485;DHT22;45006;56.958;24.166;2023-04-03T04:12:54;23.10;69.70
54485;DHT22;45006;56.958;24.166;2023-04-03T04:15:24;23.10;69.40
54485;DHT22;45006;56.958;24.166;2023-04-03T04:17:52;23.10;69.50
54485;DHT22;45006;56.958;24.166;2023-04-03T04:20:21;23.10;69.40
54485;DHT22;45006;56.958;24.166;2023-04-03T04:22:48;23.10;69.70
54485;DHT22;45006;56.958;24.166;2023-04-03T04:25:15;23.10;69.80
54485;DHT22;45006;56.958;24.166;2023-04-03T04:27:42;23.10;69.80
54485;DHT22;45006;56.958;24.166;2023-04-03T04:30:09;23.10;69.90
54485;DHT22;45006;56.958;24.166;2023-04-03T04:32:37;23.10;70.00
54485;DHT22;45006;56.958;24.166;2023-04-03T04:35:04;23.10;70.00
54485;DHT22;45006;56.958;24.166;2023-04-03T04:37:32;23.10;70.10
54485;DHT22;45006;56.958;24.166;2023-04-03T04:39:59;23.10;70.40
54485;DHT22;45006;56.958;24.166;2023-04-03T04:42:27;23.10;70.10
54485;DHT22;45006;56.958;24.166;2023-04-03T04:44:55;23.10;70.10
54485;DHT22;45006;56.958;24.166;2023-04-03T04:47:22;23.10;70.20
54485;DHT22;45006;56.958;24.166;2023-04-03T04:49:49;23.10;70.20
54485;DHT22;45006;56.958;24.166;2023-04-03T04:52:16;23.10;70.30
54485;DHT22;45006;56.958;24.166;2023-04-03T04:54:44;23.10;70.30
54485;DHT22;45006;56.958;24.166;2023-04-03T04:57:10;23.10;70.40
54485;DHT22;45006;56.958;24.166;2023-04-03T04:59:37;23.10;70.40
54485;DHT22;45006;56.958;24.166;2023-04-03T05:02:04;23.10;70.50
54485;DHT22;45006;56.958;24.166;2023-04-03T05:04:31;23.10;70.50
54485;DHT22;45006;56.958;24.166;2023-04-03T05:07:00;23.10;70.50
54485;DHT22;45006;56.958;24.166;2023-04-03T05:09:27;23.10;70.60
54485;DHT22;45006;56.958;24.166;2023-04-03T05:11:53;23.10;70.60
54485;DHT22;45006;56.958;24.166;2023-04-03T05:14:20;23.20;70.80
54485;DHT22;45006;56.958;24.166;2023-04-03T05:16:48;23.10;70.90
54485;DHT22;45006;56.958;24.166;2023-04-03T05:19:22;23.20;71.00
54485;DHT22;45006;56.958;24.166;2023-04-03T05:21:49;23.20;71.10
54485;DHT22;45006;56.958;24.166;2023-04-03T05:24:16;23.20;71.40
54485;DHT22;45006;56.958;24.166;2023-04-03T05:26:44;23.30;71.70
54485;DHT22;45006;56.958;24.166;2023-04-03T05:29:11;23.30;72.10
54485;DHT22;45006;56.958;24.166;2023-04-03T05:31:38;23.30;72.50
54485;DHT22;45006;56.958;24.166;2023-04-03T05:34:05;23.30;73.00
54485;DHT22;45006;56.958;24.166;2023-04-03T05:36:32;23.40;73.80
54485;DHT22;45006;56.958;24.166;2023-04-03T05:38:59;23.40;74.70
54485;DHT22;45006;56.958;24.166;2023-04-03T05:41:26;23.40;75.00
54485;DHT22;45006;56.958;24.166;2023-04-03T05:43:53;23.40;75.50
54485;DHT22;45006;56.958;24.166;2023-04-03T05:46:20;23.50;76.20
54485;DHT22;45006;56.958;24.166;2023-04-03T05:48:48;23.50;77.30
54485;DHT22;45006;56.958;24.166;2023-04-03T05:51:22;23.50;79.00
54485;DHT22;45006;56.958;24.166;2023-04-03T05:53:51;23.60;80.20
54485;DHT22;45006;56.958;24.166;2023-04-03T05:56:19;23.50;79.70
54485;DHT22;45006;56.958;24.166;2023-04-03T05:58:46;23.60;82.00
54485;DHT22;45006;56.958;24.166;2023-04-03T06:01:13;23.50;71.80
54485;DHT22;45006;56.958;24.166;2023-04-03T06:03:41;23.60;72.50
54485;DHT22;45006;56.958;24.166;2023-04-03T06:06:12;23.60;72.50
54485;DHT22;45006;56.958;24.166;2023-04-03T06:08:39;23.60;72.60
54485;DHT22;45006;56.958;24.166;2023-04-03T06:11:06;23.70;72.60
54485;DHT22;45006;56.958;24.166;2023-04-03T06:13:35;23.70;72.60
54485;DHT22;45006;56.958;24.166;2023-04-03T06:16:02;23.70;72.70
54485;DHT22;45006;56.958;24.166;2023-04-03T06:18:30;23.70;72.70
54485;DHT22;45006;56.958;24.166;2023-04-03T06:20:57;23.70;72.70
54485;DHT22;45006;56.958;24.166;2023-04-03T06:23:24;23.70;72.80
54485;DHT22;45006;56.958;24.166;2023-04-03T06:25:52;23.80;72.80
54485;DHT22;45006;56.958;24.166;2023-04-03T06:28:18;23.80;72.80
54485;DHT22;45006;56.958;24.166;2023-04-03T06:30:46;23.80;73.00
54485;DHT22;45006;56.958;24.166;2023-04-03T06:33:13;23.80;73.00
54485;DHT22;45006;56.958;24.166;2023-04-03T06:35:40;23.90;73.00
54485;DHT22;45006;56.958;24.166;2023-04-03T06:38:08;23.90;73.00
54485;DHT22;45006;56.958;24.166;2023-04-03T06:40:36;23.90;73.10
54485;DHT22;45006;56.958;24.166;2023-04-03T06:43:11;23.90;73.10
54485;DHT22;45006;56.958;24.166;2023-04-03T06:45:38;23.90;73.00
54485;DHT22;45006;56.958;24.166;2023-04-03T06:48:05;24.00;73.00
54485;DHT22;45006;56.958;24.166;2023-04-03T06:50:33;24.00;73.00
54485;DHT22;45006;56.958;24.166;2023-04-03T06:53:00;24.00;73.80
54485;DHT22;45006;56.958;24.166;2023-04-03T06:55:27;24.00;70.00
54485;DHT22;45006;56.958;24.166;2023-04-03T06:57:54;23.90;67.60
54485;DHT22;45006;56.958;24.166;2023-04-03T07:00:21;24.00;68.20
54485;DHT22;45006;56.958;24.166;2023-04-03T07:02:48;23.90;67.60
54485;DHT22;45006;56.958;24.166;2023-04-03T07:05:15;23.90;67.10
54485;DHT22;45006;56.958;24.166;2023-04-03T07:07:42;23.90;66.80
54485;DHT22;45006;56.958;24.166;2023-04-03T07:10:11;23.90;66.30
54485;DHT22;45006;56.958;24.166;2023-04-03T07:12:39;23.90;66.40
54485;DHT22;45006;56.958;24.166;2023-04-03T07:15:06;23.90;66.40
54485;DHT22;45006;56.958;24.166;2023-04-03T07:17:34;23.90;65.90
54485;DHT22;45006;56.958;24.166;2023-04-03T07:20:03;23.90;65.90
54485;DHT22;45006;56.958;24.166;2023-04-03T07:22:31;23.90;65.80
54485;DHT22;45006;56.958;24.166;2023-04-03T07:24:58;23.90;65.50
54485;DHT22;45006;56.958;24.166;2023-04-03T07:27:34;23.90;65.40
54485;DHT22;45006;56.958;24.166;2023-04-03T07:30:01;23.80;65.30
54485;DHT22;45006;56.958;24.166;2023-04-03T07:32:28;23.80;65.20
54485;DHT22;45006;56.958;24.166;2023-04-03T07:34:55;23.90;65.10
54485;DHT22;45006;56.958;24.166;2023-04-03T07:37:22;23.80;65.10
54485;DHT22;45006;56.958;24.166;2023-04-03T07:39:49;23.80;65.00
54485;DHT22;45006;56.958;24.166;2023-04-03T07:42:17;23.80;64.90
54485;DHT22;45006;56.958;24.166;2023-04-03T07:44:44;23.80;64.90
54485;DHT22;45006;56.958;24.166;2023-04-03T07:47:11;23.80;64.70
54485;DHT22;45006;56.958;24.166;2023-04-03T07:49:40;23.80;64.80
54485;DHT22;45006;56.958;24.166;2023-04-03T07:52:07;23.80;64.60
54485;DHT22;45006;56.958;24.166;2023-04-03T07:54:35;23.80;64.40
54485;DHT22;45006;56.958;24.166;2023-04-03T07:57:03;23.80;64.60
54485;DHT22;45006;56.958;24.166;2023-04-03T07:59:30;23.80;64.50
54485;DHT22;45006;56.958;24.166;2023-04-03T08:01:57;23.80;64.80
54485;DHT22;45006;56.958;24.166;2023-04-03T08:04:24;23.80;65.10
54485;DHT22;45006;56.958;24.166;2023-04-03T08:06:52;23.80;64.40
54485;DHT22;45006;56.958;24.166;2023-04-03T08:09:19;23.80;64.10
54485;DHT22;45006;56.958;24.166;2023-04-03T08:11:46;23.80;64.00
54485;DHT22;45006;56.958;24.166;2023-04-03T08:14:13;23.70;63.80
54485;DHT22;45006;56.958;24.166;2023-04-03T08:16:46;23.70;63.80
54485;DHT22;45006;56.958;24.166;2023-04-03T08:19:14;23.70;63.70
54485;DHT22;45006;56.958;24.166;2023-04-03T08:21:53;23.70;64.00
54485;DHT22;45006;56.958;24.166;2023-04-03T08:24:21;23.70;64.40
54485;DHT22;45006;56.958;24.166;2023-04-03T08:26:48;23.70;64.20
54485;DHT22;45006;56.958;24.166;2023-04-03T08:29:15;23.70;64.10
54485;DHT22;45006;56.958;24.166;2023-04-03T08:31:42;23.70;63.70
54485;DHT22;45006;56.958;24.166;2023-04-03T08:34:09;23.70;63.10
54485;DHT22;45006;56.958;24.166;2023-04-03T08:36:36;23.70;62.90
54485;DHT22;45006;56.958;24.166;2023-04-03T08:39:03;23.70;62.90
54485;DHT22;45006;56.958;24.166;2023-04-03T08:41:38;23.70;62.80
54485;DHT22;45006;56.958;24.166;2023-04-03T08:44:25;23.70;62.90
54485;DHT22;45006;56.958;24.166;2023-04-03T08:49:31;23.70;62.80
54485;DHT22;45006;56.958;24.166;2023-04-03T08:52:02;23.70;62.90
54485;DHT22;45006;56.958;24.166;2023-04-03T08:54:52;23.60;62.80
54485;DHT22;45006;56.958;24.166;2023-04-03T08:57:33;23.70;63.00
54485;DHT22;45006;56.958;24.166;2023-04-03T09:00:17;23.70;62.80
54485;DHT22;45006;56.958;24.166;2023-04-03T09:02:52;23.60;62.80
54485;DHT22;45006;56.958;24.166;2023-04-03T09:08:28;23.60;62.80
54485;DHT22;45006;56.958;24.166;2023-04-03T09:16:55;23.60;62.80
54485;DHT22;45006;56.958;24.166;2023-04-03T09:24:39;23.60;62.90
54485;DHT22;45006;56.958;24.166;2023-04-03T09:27:10;23.60;63.20
54485;DHT22;45006;56.958;24.166;2023-04-03T09:29:41;23.60;62.80
54485;DHT22;45006;56.958;24.166;2023-04-03T09:32:21;23.60;63.30
54485;DHT22;45006;56.958;24.166;2023-04-03T09:34:49;23.60;62.70
54485;DHT22;45006;56.958;24.166;2023-04-03T09:37:46;23.60;62.70
54485;DHT22;45006;56.958;24.166;2023-04-03T09:43:08;23.60;62.60
54485;DHT22;45006;56.958;24.166;2023-04-03T09:45:47;23.60;62.60
54485;DHT22;45006;56.958;24.166;2023-04-03T09:48:20;23.60;62.60
54485;DHT22;45006;56.958;24.166;2023-04-03T09:55:57;23.60;62.60
54485;DHT22;45006;56.958;24.166;2023-04-03T09:58:38;23.60;62.50
54485;DHT22;45006;56.958;24.166;2023-04-03T10:01:37;23.60;62.50
54485;DHT22;45006;56.958;24.166;2023-04-03T10:04:18;23.60;62.50
54485;DHT22;45006;56.958;24.166;2023-04-03T10:06:51;23.60;62.40
54485;DHT22;45006;56.958;24.166;2023-04-03T10:09:31;23.60;62.90
54485;DHT22;45006;56.958;24.166;2023-04-03T10:12:10;23.60;62.70
54485;DHT22;45006;56.958;24.166;2023-04-03T10:15:00;23.60;62.60
54485;DHT22;45006;56.958;24.166;2023-04-03T10:17:42;23.60;62.40
54485;DHT22;45006;56.958;24.166;2023-04-03T10:20:33;23.60;62.40
54485;DHT22;45006;56.958;24.166;2023-04-03T10:23:21;23.60;62.30
54485;DHT22;45006;56.958;24.166;2023-04-03T10:34:35;23.60;61.90
54485;DHT22;45006;56.958;24.166;2023-04-03T10:39:39;23.60;62.10
54485;DHT22;45006;56.958;24.166;2023-04-03T10:50:20;23.60;62.00
54485;DHT22;45006;56.958;24.166;2023-04-03T10:55:42;23.60;62.00
54485;DHT22;45006;56.958;24.166;2023-04-03T10:58:24;23.60;62.00
54485;DHT22;45006;56.958;24.166;2023-04-03T11:00:54;23.60;61.90
54485;DHT22;45006;56.958;24.166;2023-04-03T11:03:31;23.60;62.00
54485;DHT22;45006;56.958;24.166;2023-04-03T11:06:02;23.60;62.10
54485;DHT22;45006;56.958;24.166;2023-04-03T11:08:42;23.60;62.00
54485;DHT22;45006;56.958;24.166;2023-04-03T11:11:22;23.60;62.00
54485;DHT22;45006;56.958;24.166;2023-04-03T11:16:33;23.60;62.10
54485;DHT22;45006;56.958;24.166;2023-04-03T11:19:20;23.60;62.10
54485;DHT22;45006;56.958;24.166;2023-04-03T11:21:57;23.60;62.10
54485;DHT22;45006;56.958;24.166;2023-04-03T11:24:31;23.60;62.20
54485;DHT22;45006;56.958;24.166;2023-04-03T11:27:00;23.60;62.20
54485;DHT22;45006;56.958;24.166;2023-04-03T11:29:36;23.60;62.10
54485;DHT22;45006;56.958;24.166;2023-04-03T11:34:40;23.60;62.20
54485;DHT22;45006;56.958;24.166;2023-04-03T11:37:30;23.60;62.20
54485;DHT22;45006;56.958;24.166;2023-04-03T11:42:40;23.60;62.30
54485;DHT22;45006;56.958;24.166;2023-04-03T11:47:49;23.60;62.40
54485;DHT22;45006;56.958;24.166;2023-04-03T11:58:11;23.70;65.50
54485;DHT22;45006;56.958;24.166;2023-04-03T12:13:39;23.70;63.90
54485;DHT22;45006;56.958;24.166;2023-04-03T12:21:24;23.60;62.10
54485;DHT22;45006;56.958;24.166;2023-04-03T12:38:13;23.60;61.70
54485;DHT22;45006;56.958;24.166;2023-04-03T12:40:51;23.60;61.70
54485;DHT22;45006;56.958;24.166;2023-04-03T12:51:36;23.60;61.70
54485;DHT22;45006;56.958;24.166;2023-04-03T12:56:43;23.60;61.80
54485;DHT22;45006;56.958;24.166;2023-04-03T12:59:25;23.60;61.80
54485;DHT22;45006;56.958;24.166;2023-04-03T13:01:58;23.60;61.80
54485;DHT22;45006;56.958;24.166;2023-04-03T13:04:31;23.60;61.70
54485;DHT22;45006;56.958;24.166;2023-04-03T13:06:58;23.60;61.80
54485;DHT22;45006;56.958;24.166;2023-04-03T13:09:29;23.60;61.70
54485;DHT22;45006;56.958;24.166;2023-04-03T13:12:10;23.50;61.70
54485;DHT22;45006;56.958;24.166;2023-04-03T13:14:38;23.50;62.30
54485;DHT22;45006;56.958;24.166;2023-04-03T13:17:16;23.60;61.70
54485;DHT22;45006;56.958;24.166;2023-04-03T13:19:45;23.60;61.70
54485;DHT22;45006;56.958;24.166;2023-04-03T13:22:31;23.50;61.60
54485;DHT22;45006;56.958;24.166;2023-04-03T13:25:03;23.50;61.60
54485;DHT22;45006;56.958;24.166;2023-04-03T13:27:31;23.50;61.50
54485;DHT22;45006;56.958;24.166;2023-04-03T13:30:00;23.50;61.60
54485;DHT22;45006;56.958;24.166;2023-04-03T13:32:30;23.50;61.50
54485;DHT22;45006;56.958;24.166;2023-04-03T13:34:59;23.50;61.50
54485;DHT22;45006;56.958;24.166;2023-04-03T13:37:57;23.50;61.60
54485;DHT22;45006;56.958;24.166;2023-04-03T13:40:25;23.50;61.60
54485;DHT22;45006;56.958;24.166;2023-04-03T13:43:18;23.50;61.60
54485;DHT22;45006;56.958;24.166;2023-04-03T13:48:46;23.50;62.10
54485;DHT22;45006;56.958;24.166;2023-04-03T13:53:56;23.50;62.20
54485;DHT22;45006;56.958;24.166;2023-04-03T14:04:27;23.50;62.60
54485;DHT22;45006;56.958;24.166;2023-04-03T14:06:55;23.50;62.60
54485;DHT22;45006;56.958;24.166;2023-04-03T14:09:23;23.50;62.80
54485;DHT22;45006;56.958;24.166;2023-04-03T14:11:56;23.50;62.10
54485;DHT22;45006;56.958;24.166;2023-04-03T14:14:31;23.40;52.40
54485;DHT22;45006;56.958;24.166;2023-04-03T14:17:02;23.30;53.70
54485;DHT22;45006;56.958;24.166;2023-04-03T14:19:34;23.30;55.60
54485;DHT22;45006;56.958;24.166;2023-04-03T14:24:44;23.30;56.80
54485;DHT22;45006;56.958;24.166;2023-04-03T14:27:23;23.30;58.10
54485;DHT22;45006;56.958;24.166;2023-04-03T14:29:53;23.30;57.70
54485;DHT22;45006;56.958;24.166;2023-04-03T14:32:21;23.30;57.60
54485;DHT22;45006;56.958;24.166;2023-04-03T14:34:50;23.30;59.00
54485;DHT22;45006;56.958;24.166;2023-04-03T14:37:28;23.20;59.10
54485;DHT22;45006;56.958;24.166;2023-04-03T14:39:57;23.30;59.50
54485;DHT22;45006;56.958;24.166;2023-04-03T14:42:34;23.20;60.30
54485;DHT22;45006;56.958;24.166;2023-04-03T14:45:05;23.20;60.50
54485;DHT22;45006;56.958;24.166;2023-04-03T14:47:33;23.20;60.00
54485;DHT22;45006;56.958;24.166;2023-04-03T14:50:04;23.20;60.10
54485;DHT22;45006;56.958;24.166;2023-04-03T14:52:34;23.20;60.20
54485;DHT22;45006;56.958;24.166;2023-04-03T14:55:03;23.20;59.80
54485;DHT22;45006;56.958;24.166;2023-04-03T14:57:30;23.20;59.70
54485;DHT22;45006;56.958;24.166;2023-04-03T14:59:58;23.20;59.80
54485;DHT22;45006;56.958;24.166;2023-04-03T15:02:32;23.20;60.00
54485;DHT22;45006;56.958;24.166;2023-04-03T15:05:01;23.20;60.20
54485;DHT22;45006;56.958;24.166;2023-04-03T15:07:34;23.20;60.60
54485;DHT22;45006;56.958;24.166;2023-04-03T15:10:18;23.20;60.70
54485;DHT22;45006;56.958;24.166;2023-04-03T15:12:46;23.20;60.90
54485;DHT22;45006;56.958;24.166;2023-04-03T15:15:15;23.20;61.30
54485;DHT22;45006;56.958;24.166;2023-04-03T15:17:43;23.20;61.70
54485;DHT22;45006;56.958;24.166;2023-04-03T15:20:16;23.20;61.90
54485;DHT22;45006;56.958;24.166;2023-04-03T15:22:44;23.20;62.00
54485;DHT22;45006;56.958;24.166;2023-04-03T15:25:11;23.20;62.10
54485;DHT22;45006;56.958;24.166;2023-04-03T15:27:38;23.20;62.40
54485;DHT22;45006;56.958;24.166;2023-04-03T15:30:15;23.20;62.40
54485;DHT22;45006;56.958;24.166;2023-04-03T15:32:43;23.20;62.90
54485;DHT22;45006;56.958;24.166;2023-04-03T15:35:10;23.20;63.00
54485;DHT22;45006;56.958;24.166;2023-04-03T15:37:37;23.20;63.00
54485;DHT22;45006;56.958;24.166;2023-04-03T15:40:07;23.20;63.30
54485;DHT22;45006;56.958;24.166;2023-04-03T15:42:34;23.20;63.30
54485;DHT22;45006;56.958;24.166;2023-04-03T15:45:01;23.20;63.50
54485;DHT22;45006;56.958;24.166;2023-04-03T15:47:29;23.20;63.60
54485;DHT22;45006;56.958;24.166;2023-04-03T15:49:56;23.20;63.80
54485;DHT22;45006;56.958;24.166;2023-04-03T15:52:23;23.20;64.30
54485;DHT22;45006;56.958;24.166;2023-04-03T15:54:50;23.30;64.50
54485;DHT22;45006;56.958;24.166;2023-04-03T15:57:17;23.20;64.70
54485;DHT22;45006;56.958;24.166;2023-04-03T15:59:44;23.30;64.90
54485;DHT22;45006;56.958;24.166;2023-04-03T16:02:13;23.30;65.20
54485;DHT22;45006;56.958;24.166;2023-04-03T16:04:42;23.30;65.50
54485;DHT22;45006;56.958;24.166;2023-04-03T16:07:09;23.20;65.70
54485;DHT22;45006;56.958;24.166;2023-04-03T16:09:36;23.20;65.90
54485;DHT22;45006;56.958;24.166;2023-04-03T16:12:04;23.20;66.30
54485;DHT22;45006;56.958;24.166;2023-04-03T16:14:31;23.30;66.60
54485;DHT22;45006;56.958;24.166;2023-04-03T16:16:58;23.30;66.90
54485;DHT22;45006;56.958;24.166;2023-04-03T16:19:29;23.20;67.00
54485;DHT22;45006;56.958;24.166;2023-04-03T16:21:58;23.30;67.00
54485;DHT22;45006;56.958;24.166;2023-04-03T16:24:25;23.20;66.80
54485;DHT22;45006;56.958;24.166;2023-04-03T16:26:53;23.30;67.10
54485;DHT22;45006;56.958;24.166;2023-04-03T16:29:20;23.30;67.20
54485;DHT22;45006;56.958;24.166;2023-04-03T16:31:47;23.20;66.90
54485;DHT22;45006;56.958;24.166;2023-04-03T16:34:14;23.20;67.10
54485;DHT22;45006;56.958;24.166;2023-04-03T16:36:42;23.20;66.60
54485;DHT22;45006;56.958;24.166;2023-04-03T16:39:09;23.20;66.80
54485;DHT22;45006;56.958;24.166;2023-04-03T16:41:36;23.20;67.00
54485;DHT22;45006;56.958;24.166;2023-04-03T16:44:04;23.20;67.10
54485;DHT22;45006;56.958;24.166;2023-04-03T16:46:31;23.20;67.10
54485;DHT22;45006;56.958;24.166;2023-04-03T16:48:58;23.20;67.30
54485;DHT22;45006;56.958;24.166;2023-04-03T16:51:25;23.20;67.30
54485;DHT22;45006;56.958;24.166;2023-04-03T16:53:52;23.20;67.30
54485;DHT22;45006;56.958;24.166;2023-04-03T16:56:20;23.20;67.40
54485;DHT22;45006;56.958;24.166;2023-04-03T16:58:48;23.20;67.40
54485;DHT22;45006;56.958;24.166;2023-04-03T17:01:18;23.20;67.30
54485;DHT22;45006;56.958;24.166;2023-04-03T17:03:46;23.20;67.30
54485;DHT22;45006;56.958;24.166;2023-04-03T17:06:19;23.20;67.30
54485;DHT22;45006;56.958;24.166;2023-04-03T17:08:47;23.20;67.20
54485;DHT22;45006;56.958;24.166;2023-04-03T17:11:18;23.10;67.20
54485;DHT22;45006;56.958;24.166;2023-04-03T17:13:47;23.10;67.30
54485;DHT22;45006;56.958;24.166;2023-04-03T17:16:15;23.10;67.00
54485;DHT22;45006;56.958;24.166;2023-04-03T17:18:44;23.10;67.40
54485;DHT22;45006;56.958;24.166;2023-04-03T17:21:12;23.10;67.30
54485;DHT22;45006;56.958;24.166;2023-04-03T17:23:42;23.10;67.20
54485;DHT22;45006;56.958;24.166;2023-04-03T17:26:10;23.10;67.40
54485;DHT22;45006;56.958;24.166;2023-04-03T17:28:37;23.10;67.40
54485;DHT22;45006;56.958;24.166;2023-04-03T17:31:06;23.10;67.40
54485;DHT22;45006;56.958;24.166;2023-04-03T17:33:33;23.10;67.50
54485;DHT22;45006;56.958;24.166;2023-04-03T17:36:02;23.10;67.20
54485;DHT22;45006;56.958;24.166;2023-04-03T17:38:31;23.10;67.10
54485;DHT22;45006;56.958;24.166;2023-04-03T17:41:01;23.10;67.30
54485;DHT22;45006;56.958;24.166;2023-04-03T17:43:28;23.10;67.10
54485;DHT22;45006;56.958;24.166;2023-04-03T17:46:04;23.10;67.40